createdAt,value
2022-09-09T00:01:25.632Z,105.65
2022-09-09T00:04:00.214Z,110.57
2022-09-09T00:06:36.330Z,103.25
2022-09-09T00:09:07.841Z,103.38
2022-09-09T00:11:47.568Z,115.45
2022-09-09T00:14:23.533Z,143.15
2022-09-09T00:16:56.530Z,110.00
2022-09-09T00:19:47.198Z,147.23
2022-09-09T00:22:22.933Z,138.95
2022-09-09T00:24:54.843Z,127.38
2022-09-09T00:27:48.571Z,130.60
2022-09-09T00:30:20.707Z,133.00
2022-09-09T00:32:48.799Z,149.60
2022-09-09T00:35:24.740Z,104.10
2022-09-09T00:37:54.372Z,123.45
2022-09-09T00:40:34.134Z,108.95
2022-09-09T00:43:26.722Z,127.47
2022-09-09T00:46:51.874Z,122.72
2022-09-09T00:49:40.026Z,114.80
2022-09-09T00:52:19.302Z,144.48
2022-09-09T00:54:52.291Z,126.73
2022-09-09T00:57:33.660Z,93.57
2022-09-09T01:00:25.938Z,150.90
2022-09-09T01:03:04.359Z,94.63
2022-09-09T01:05:33.599Z,93.15
2022-09-09T01:08:04.135Z,107.20
2022-09-09T01:10:42.560Z,137.88
2022-09-09T01:13:24.706Z,102.63
2022-09-09T01:15:56.328Z,157.82
2022-09-09T01:18:32.015Z,95.32
2022-09-09T01:21:24.711Z,115.75
2022-09-09T01:24:14.395Z,114.53
2022-09-09T01:26:43.643Z,128.65
2022-09-09T01:29:14.324Z,119.70
2022-09-09T01:31:42.584Z,100.82
2022-09-09T01:34:13.641Z,102.95
2022-09-09T01:36:55.222Z,108.05
2022-09-09T01:39:22.317Z,124.40
2022-09-09T01:41:48.824Z,158.45
2022-09-09T01:44:15.696Z,155.40
2022-09-09T01:46:42.080Z,195.85
2022-09-09T01:49:09.864Z,123.43
2022-09-09T01:51:38.789Z,136.02
2022-09-09T01:54:06.034Z,119.93
2022-09-09T01:57:01.741Z,87.90
2022-09-09T01:59:37.378Z,110.60
2022-09-09T02:02:16.635Z,95.20
2022-09-09T02:04:46.611Z,98.57
2022-09-09T02:07:35.701Z,94.07
2022-09-09T02:10:11.322Z,111.93
2022-09-09T02:12:42.603Z,107.38
2022-09-09T02:15:36.536Z,101.88
2022-09-09T02:18:09.225Z,104.07
2022-09-09T02:20:39.199Z,105.88
2022-09-09T02:23:09.539Z,126.28
2022-09-09T02:25:38.146Z,139.77
2022-09-09T02:28:08.799Z,107.32
2022-09-09T02:30:37.345Z,109.30
2022-09-09T02:33:08.375Z,104.70
2022-09-09T02:35:38.542Z,189.52
2022-09-09T02:40:33.666Z,88.50
2022-09-09T02:43:01.084Z,222.30
2022-09-09T02:45:37.426Z,266.70
2022-09-09T02:48:10.311Z,308.27
2022-09-09T02:50:49.019Z,229.25
2022-09-09T02:53:23.845Z,158.00
2022-09-09T02:56:07.187Z,119.00
2022-09-09T02:58:34.358Z,120.53
2022-09-09T03:01:03.794Z,134.30
2022-09-09T03:03:31.266Z,211.38
2022-09-09T03:05:58.015Z,159.35
2022-09-09T03:08:24.543Z,125.95
2022-09-09T03:10:50.929Z,170.70
2022-09-09T03:13:20.223Z,87.05
2022-09-09T03:15:46.587Z,118.80
2022-09-09T03:18:12.991Z,88.13
2022-09-09T03:20:39.383Z,89.20
2022-09-09T03:23:05.950Z,164.68
2022-09-09T03:25:32.973Z,163.70
2022-09-09T03:27:59.376Z,196.30
2022-09-09T03:30:27.975Z,130.25
2022-09-09T03:32:54.639Z,174.55
2022-09-09T03:35:21.094Z,167.05
2022-09-09T03:37:47.932Z,102.85
2022-09-09T03:40:15.004Z,173.43
2022-09-09T03:42:41.500Z,97.53
2022-09-09T03:45:10.313Z,142.82
2022-09-09T03:47:37.064Z,85.72
2022-09-09T03:50:05.208Z,172.75
2022-09-09T03:52:31.724Z,101.93
2022-09-09T03:54:58.318Z,108.32
2022-09-09T03:57:24.813Z,99.78
2022-09-09T03:59:51.151Z,145.70
2022-09-09T04:02:17.662Z,108.78
2022-09-09T04:04:44.114Z,80.75
2022-09-09T04:07:10.924Z,89.97
2022-09-09T04:09:37.355Z,65.53
2022-09-09T04:12:03.907Z,68.97
2022-09-09T04:14:30.286Z,69.35
2022-09-09T04:16:59.190Z,66.70
2022-09-09T04:19:25.834Z,70.28
2022-09-09T04:21:52.619Z,86.88
2022-09-09T04:24:19.823Z,92.28
2022-09-09T04:26:46.467Z,72.35
2022-09-09T04:29:13.010Z,65.10
2022-09-09T04:31:42.882Z,67.03
2022-09-09T04:34:12.391Z,70.35
2022-09-09T04:36:40.170Z,77.13
2022-09-09T04:39:07.038Z,74.00
2022-09-09T04:41:33.502Z,75.85
2022-09-09T04:44:01.722Z,73.93
2022-09-09T04:46:28.194Z,62.17
2022-09-09T04:48:54.753Z,69.63
2022-09-09T04:51:21.253Z,64.45
2022-09-09T04:53:48.562Z,57.13
2022-09-09T04:56:16.996Z,63.53
2022-09-09T04:58:43.997Z,64.45
2022-09-09T05:01:16.969Z,64.32
2022-09-09T05:03:43.449Z,57.70
2022-09-09T05:06:12.072Z,67.80
2022-09-09T05:08:39.423Z,62.42
2022-09-09T05:11:20.990Z,64.25
2022-09-09T05:13:48.048Z,64.13
2022-09-09T05:16:15.288Z,60.65
2022-09-09T05:18:43.678Z,66.82
2022-09-09T05:21:11.361Z,69.88
2022-09-09T05:23:38.539Z,67.90
2022-09-09T05:26:06.221Z,86.32
2022-09-09T05:28:36.351Z,61.80
2022-09-09T05:33:41.563Z,56.10
2022-09-09T05:36:17.139Z,57.70
2022-09-09T05:38:44.917Z,59.17
2022-09-09T05:41:18.313Z,67.05
2022-09-09T05:43:46.541Z,56.95
2022-09-09T05:46:15.733Z,60.08
2022-09-09T05:48:46.897Z,54.63
2022-09-09T05:51:20.655Z,65.22
2022-09-09T05:53:47.984Z,59.55
2022-09-09T05:56:30.644Z,58.67
2022-09-09T05:59:02.563Z,64.15
2022-09-09T06:01:36.798Z,53.70
2022-09-09T06:04:05.135Z,56.35
2022-09-09T06:06:37.944Z,52.15
2022-09-09T06:09:12.456Z,52.17
2022-09-09T06:11:40.917Z,46.95
2022-09-09T06:14:08.554Z,52.40
2022-09-09T06:16:36.210Z,48.03
2022-09-09T06:19:06.481Z,46.92
2022-09-09T06:24:04.986Z,42.33
2022-09-09T06:26:34.432Z,45.47
2022-09-09T06:29:03.637Z,46.03
2022-09-09T06:31:32.694Z,45.75
2022-09-09T06:34:00.343Z,42.00
2022-09-09T06:36:32.569Z,42.10
2022-09-09T06:39:00.589Z,41.17
2022-09-09T06:41:32.983Z,44.10
2022-09-09T06:44:00.132Z,44.90
2022-09-09T06:46:34.533Z,41.35
2022-09-09T06:49:03.844Z,42.72
2022-09-09T06:51:36.384Z,43.60
2022-09-09T06:54:05.691Z,40.90
2022-09-09T06:56:39.311Z,40.73
2022-09-09T06:59:10.215Z,40.40
2022-09-09T07:01:42.172Z,41.33
2022-09-09T07:04:12.297Z,44.92
2022-09-09T07:06:44.324Z,41.00
2022-09-09T07:09:14.042Z,42.58
2022-09-09T07:11:44.565Z,40.45
2022-09-09T07:14:15.099Z,41.35
2022-09-09T07:16:43.142Z,40.17
2022-09-09T07:19:12.587Z,40.72
2022-09-09T07:21:43.325Z,40.05
2022-09-09T07:24:14.880Z,38.50
2022-09-09T07:26:44.107Z,38.90
2022-09-09T07:29:18.498Z,39.38
2022-09-09T07:31:47.049Z,37.85
2022-09-09T07:34:13.603Z,38.17
2022-09-09T07:36:43.018Z,37.35
2022-09-09T07:39:14.180Z,36.05
2022-09-09T07:41:48.854Z,36.22
2022-09-09T07:44:18.215Z,36.08
2022-09-09T07:46:46.366Z,35.27
2022-09-09T07:49:13.508Z,35.95
2022-09-09T07:51:42.339Z,34.50
2022-09-09T07:54:12.059Z,34.50
2022-09-09T07:56:40.407Z,32.83
2022-09-09T07:59:07.896Z,30.75
2022-09-09T08:01:40.086Z,29.38
2022-09-09T08:04:18.251Z,27.70
2022-09-09T08:06:51.568Z,27.25
2022-09-09T08:09:18.287Z,24.90
2022-09-09T08:11:45.276Z,23.98
2022-09-09T08:14:12.803Z,22.75
2022-09-09T08:16:45.105Z,22.02
2022-09-09T08:19:11.760Z,20.45
2022-09-09T08:21:41.047Z,19.52
2022-09-09T08:24:08.868Z,19.20
2022-09-09T08:26:38.250Z,19.20
2022-09-09T08:29:07.676Z,18.20
2022-09-09T08:31:38.167Z,20.77
2022-09-09T08:34:05.924Z,16.92
2022-09-09T08:36:35.936Z,17.10
2022-09-09T08:39:03.177Z,17.75
2022-09-09T08:42:01.370Z,18.13
2022-09-09T08:44:31.889Z,16.98
2022-09-09T08:47:24.709Z,15.07
2022-09-09T08:50:20.791Z,14.73
2022-09-09T08:52:56.479Z,15.38
2022-09-09T08:55:28.943Z,14.80
2022-09-09T08:57:58.740Z,15.27
2022-09-09T09:00:36.371Z,14.07
2022-09-09T09:03:28.680Z,14.40
2022-09-09T09:06:10.413Z,14.90
2022-09-09T09:08:58.648Z,14.45
2022-09-09T09:11:25.223Z,13.65
2022-09-09T09:13:58.021Z,13.48
2022-09-09T09:17:02.477Z,14.65
2022-09-09T09:19:31.741Z,13.95
2022-09-09T09:22:00.829Z,12.33
2022-09-09T09:24:39.920Z,12.88
2022-09-09T09:27:21.912Z,12.68
2022-09-09T09:30:21.061Z,12.50
2022-09-09T09:32:41.944Z,12.02
2022-09-09T09:35:13.555Z,12.10
2022-09-09T09:40:28.571Z,12.48
2022-09-09T09:43:08.774Z,11.52
2022-09-09T09:46:00.981Z,11.50
2022-09-09T09:48:35.824Z,11.30
2022-09-09T09:51:11.466Z,11.68
2022-09-09T09:53:39.813Z,11.20
2022-09-09T09:56:09.096Z,12.60
2022-09-09T09:58:47.467Z,10.60
2022-09-09T10:01:25.774Z,10.90
2022-09-09T10:03:54.770Z,10.38
2022-09-09T10:06:35.911Z,354.88
2022-09-09T10:09:05.236Z,30.63
2022-09-09T10:11:39.396Z,11.13
2022-09-09T10:14:20.957Z,10.57
2022-09-09T10:17:28.105Z,11.13
2022-09-09T10:20:36.284Z,13.27
2022-09-09T10:23:37.826Z,10.77
2022-09-09T10:26:38.365Z,9.60
2022-09-09T10:29:26.030Z,9.73
2022-09-09T10:32:07.494Z,9.70
2022-09-09T10:34:53.180Z,10.02
2022-09-09T10:37:43.890Z,8.60
2022-09-09T10:40:43.191Z,9.23
2022-09-09T10:43:27.625Z,9.05
2022-09-09T10:46:03.584Z,8.48
2022-09-09T10:48:59.929Z,8.40
2022-09-09T10:52:04.888Z,8.15
2022-09-09T10:54:42.938Z,9.00
2022-09-09T10:57:26.356Z,9.18
2022-09-09T11:00:05.254Z,9.43
2022-09-09T11:02:36.886Z,10.20
2022-09-09T11:05:17.229Z,10.25
2022-09-09T11:08:00.178Z,10.48
2022-09-09T11:11:04.768Z,10.45
2022-09-09T11:13:46.818Z,10.73
2022-09-09T11:16:20.702Z,10.38
2022-09-09T11:18:48.317Z,10.40
2022-09-09T11:21:27.918Z,11.48
2022-09-09T11:24:03.343Z,10.70
2022-09-09T11:26:37.020Z,10.75
2022-09-09T11:29:51.420Z,10.38
2022-09-09T11:33:03.031Z,11.45
2022-09-09T11:35:39.438Z,10.48
2022-09-09T11:38:23.967Z,10.40
2022-09-09T11:41:03.602Z,10.50
2022-09-09T11:43:39.781Z,8.98
2022-09-09T11:46:06.707Z,9.40
2022-09-09T11:48:36.650Z,9.40
2022-09-09T11:51:26.785Z,10.05
2022-09-09T11:53:58.266Z,10.48
2022-09-09T11:56:28.288Z,9.18
2022-09-09T11:58:59.245Z,9.05
2022-09-09T12:01:42.574Z,9.10
2022-09-09T12:04:30.759Z,9.63
2022-09-09T12:07:01.780Z,12.23
2022-09-09T12:09:59.841Z,9.85
2022-09-09T12:12:32.792Z,9.32
2022-09-09T12:15:04.278Z,9.20
2022-09-09T12:17:34.267Z,11.30
2022-09-09T12:20:20.271Z,9.45
2022-09-09T12:22:52.635Z,11.43
2022-09-09T12:25:40.953Z,11.23
2022-09-09T12:28:18.844Z,9.43
2022-09-09T12:30:52.834Z,10.70
2022-09-09T12:33:20.266Z,9.68
2022-09-09T12:35:55.513Z,10.18
2022-09-09T12:38:34.930Z,10.20
2022-09-09T12:41:01.469Z,9.85
2022-09-09T12:43:29.598Z,14.88
2022-09-09T12:46:01.427Z,9.38
2022-09-09T12:48:46.688Z,9.25
2022-09-09T12:51:26.119Z,9.77
2022-09-09T12:53:53.106Z,10.18
2022-09-09T12:56:22.284Z,10.63
2022-09-09T12:58:52.548Z,10.00
2022-09-09T13:01:26.303Z,11.60
2022-09-09T13:03:53.935Z,12.80
2022-09-09T13:06:28.866Z,11.20
2022-09-09T13:09:01.015Z,11.15
2022-09-09T13:11:35.994Z,11.05
2022-09-09T13:14:03.258Z,11.10
2022-09-09T13:16:33.429Z,10.95
2022-09-09T13:19:08.137Z,13.00
2022-09-09T13:21:40.892Z,13.88
2022-09-09T13:24:32.067Z,13.70
2022-09-09T13:27:21.639Z,12.07
2022-09-09T13:29:58.048Z,14.25
2022-09-09T13:32:27.850Z,10.93
2022-09-09T13:35:02.495Z,10.35
2022-09-09T13:37:37.790Z,9.95
2022-09-09T13:40:07.196Z,10.85
2022-09-09T13:42:40.105Z,10.80
2022-09-09T13:45:07.138Z,10.45
2022-09-09T13:47:35.903Z,10.60
2022-09-09T13:50:34.952Z,10.07
2022-09-09T13:53:01.417Z,10.07
2022-09-09T13:55:29.696Z,9.80
2022-09-09T13:58:04.350Z,10.10
2022-09-09T14:00:33.056Z,10.27
2022-09-09T14:03:02.533Z,9.43
2022-09-09T14:05:30.855Z,10.55
2022-09-09T14:07:58.982Z,10.77
2022-09-09T14:10:25.321Z,10.27
2022-09-09T14:12:52.044Z,10.02
2022-09-09T14:15:18.679Z,10.13
2022-09-09T14:17:45.136Z,12.38
2022-09-09T14:20:13.102Z,12.45
2022-09-09T14:22:40.260Z,12.00
2022-09-09T14:25:07.607Z,12.07
2022-09-09T14:27:34.601Z,12.07
2022-09-09T14:30:01.828Z,11.27
2022-09-09T14:32:28.734Z,12.73
2022-09-09T14:34:55.142Z,12.80
2022-09-09T14:37:21.741Z,12.88
2022-09-09T14:39:48.566Z,13.90
2022-09-09T14:42:15.119Z,13.82
2022-09-09T14:44:41.701Z,14.55
2022-09-09T14:47:09.148Z,14.52
2022-09-09T14:49:36.205Z,16.15
2022-09-09T14:52:03.406Z,13.90
2022-09-09T14:54:30.084Z,17.58
2022-09-09T14:56:58.072Z,14.45
2022-09-09T14:59:24.634Z,18.33
2022-09-09T15:01:51.209Z,13.27
2022-09-09T15:04:17.878Z,14.48
2022-09-09T15:06:47.976Z,13.20
2022-09-09T15:11:41.055Z,11.90
2022-09-09T15:14:09.398Z,12.60
2022-09-09T15:16:36.512Z,12.85
2022-09-09T15:19:03.845Z,12.68
2022-09-09T15:21:33.047Z,13.52
2022-09-09T15:24:00.222Z,15.13
2022-09-09T15:26:28.065Z,13.18
2022-09-09T15:28:55.728Z,14.60
2022-09-09T15:31:24.743Z,15.75
2022-09-09T15:34:02.029Z,15.48
2022-09-09T15:36:29.790Z,15.30
2022-09-09T15:38:56.975Z,16.02
2022-09-09T15:41:24.539Z,17.20
2022-09-09T15:43:53.028Z,16.92
2022-09-09T15:46:33.253Z,16.48
2022-09-09T15:49:22.913Z,15.82
2022-09-09T15:52:03.205Z,16.23
2022-09-09T15:54:33.034Z,15.32
2022-09-09T15:57:02.111Z,15.50
2022-09-09T15:59:30.696Z,16.25
2022-09-09T16:01:57.666Z,15.18
2022-09-09T16:04:25.598Z,14.35
2022-09-09T16:06:59.377Z,14.10
2022-09-09T16:09:27.085Z,15.75
2022-09-09T16:11:54.920Z,13.25
2022-09-09T16:14:21.966Z,14.35
2022-09-09T16:16:49.266Z,15.55
2022-09-09T16:19:16.840Z,13.60
2022-09-09T16:21:51.409Z,13.18
2022-09-09T16:24:20.311Z,17.48
2022-09-09T16:26:49.918Z,11.80
2022-09-09T16:29:20.655Z,12.02
2022-09-09T16:31:47.847Z,10.77
2022-09-09T16:34:15.779Z,11.60
2022-09-09T16:36:43.308Z,10.88
2022-09-09T16:39:12.342Z,10.88
2022-09-09T16:41:40.482Z,10.93
2022-09-09T16:44:09.372Z,11.75
2022-09-09T16:46:39.862Z,10.63
2022-09-09T16:49:08.610Z,10.60
2022-09-09T16:51:38.572Z,10.80
2022-09-09T16:54:09.625Z,10.13
2022-09-09T16:56:44.146Z,11.30
2022-09-09T16:59:16.727Z,10.25
2022-09-09T17:01:48.628Z,10.50
2022-09-09T17:04:21.343Z,10.57
2022-09-09T17:06:53.732Z,11.18
2022-09-09T17:09:21.220Z,10.52
2022-09-09T17:11:48.872Z,10.30
2022-09-09T17:14:18.427Z,10.40
2022-09-09T17:16:45.199Z,10.15
2022-09-09T17:19:12.499Z,10.57
2022-09-09T17:21:54.508Z,10.63
2022-09-09T17:24:27.462Z,10.00
2022-09-09T17:26:55.286Z,10.32
2022-09-09T17:29:22.189Z,10.43
2022-09-09T17:31:48.521Z,10.13
2022-09-09T17:34:15.249Z,10.50
2022-09-09T17:36:41.908Z,10.38
2022-09-09T17:39:08.344Z,10.50
2022-09-09T17:41:39.406Z,10.05
2022-09-09T17:46:41.842Z,10.00
2022-09-09T17:49:12.886Z,10.60
2022-09-09T17:51:41.591Z,10.95
2022-09-09T17:54:10.756Z,10.60
2022-09-09T17:56:38.665Z,10.77
2022-09-09T17:59:07.220Z,11.23
2022-09-09T18:01:36.336Z,11.73
2022-09-09T18:04:06.223Z,10.45
2022-09-09T18:06:39.188Z,12.25
2022-09-09T18:09:08.601Z,11.10
2022-09-09T18:11:43.058Z,12.32
2022-09-09T18:14:12.766Z,11.00
2022-09-09T18:16:40.766Z,11.63
2022-09-09T18:19:12.396Z,12.52
2022-09-09T18:21:39.191Z,12.32
2022-09-09T18:24:06.890Z,12.02
2022-09-09T18:26:35.231Z,48.33
2022-09-09T18:29:06.527Z,31.25
2022-09-09T18:31:34.253Z,19.70
2022-09-09T18:34:03.582Z,13.43
2022-09-09T18:36:38.983Z,13.23
2022-09-09T18:39:08.080Z,12.63
2022-09-09T18:41:37.232Z,12.98
2022-09-09T18:44:09.161Z,13.30
2022-09-09T18:46:37.627Z,14.40
2022-09-09T18:49:05.958Z,14.52
2022-09-09T18:51:37.170Z,13.55
2022-09-09T18:54:11.829Z,12.98
2022-09-09T18:56:38.924Z,14.60
2022-09-09T18:59:08.358Z,13.40
2022-09-09T19:01:35.712Z,13.55
2022-09-09T19:04:04.232Z,13.85
2022-09-09T19:06:32.553Z,16.42
2022-09-09T19:09:03.140Z,16.80
2022-09-09T19:11:30.487Z,15.95
2022-09-09T19:14:02.414Z,16.00
2022-09-09T19:16:31.526Z,17.58
2022-09-09T19:19:00.761Z,15.95
2022-09-09T19:21:30.226Z,18.30
2022-09-09T19:24:06.320Z,15.68
2022-09-09T19:26:40.680Z,14.90
2022-09-09T19:29:14.364Z,15.43
2022-09-09T19:31:55.156Z,19.40
2022-09-09T19:34:28.813Z,15.98
2022-09-09T19:36:55.441Z,16.75
2022-09-09T19:39:21.857Z,16.77
2022-09-09T19:41:49.101Z,23.15
2022-09-09T19:44:17.080Z,17.30
2022-09-09T19:46:46.567Z,20.15
2022-09-09T19:49:13.493Z,20.40
2022-09-09T19:51:40.032Z,19.25
2022-09-09T19:54:09.159Z,22.17
2022-09-09T19:56:37.849Z,20.13
2022-09-09T19:59:06.315Z,19.08
2022-09-09T20:01:40.394Z,20.25
2022-09-09T20:04:07.995Z,19.27
2022-09-09T20:06:40.499Z,20.15
2022-09-09T20:09:10.451Z,20.10
2022-09-09T20:11:38.454Z,19.02
2022-09-09T20:14:05.288Z,19.55
2022-09-09T20:16:31.956Z,19.83
2022-09-09T20:19:02.141Z,20.92
2022-09-09T20:24:00.854Z,21.10
2022-09-09T20:26:30.367Z,21.60
2022-09-09T20:28:56.781Z,21.42
2022-09-09T20:31:26.449Z,25.25
2022-09-09T20:33:54.882Z,26.52
2022-09-09T20:36:25.186Z,21.00
2022-09-09T20:38:54.655Z,22.27
2022-09-09T20:41:22.740Z,22.90
2022-09-09T20:43:53.635Z,22.65
2022-09-09T20:46:22.900Z,23.50
2022-09-09T20:48:51.342Z,23.07
2022-09-09T20:51:20.270Z,24.15
2022-09-09T20:53:47.461Z,23.25
2022-09-09T20:56:16.892Z,23.20
2022-09-09T20:58:43.837Z,24.20
2022-09-09T21:01:15.241Z,22.35
2022-09-09T21:03:41.639Z,27.25
2022-09-09T21:06:08.686Z,24.30
2022-09-09T21:08:36.048Z,24.38
2022-09-09T21:11:03.609Z,24.05
2022-09-09T21:13:31.395Z,22.45
2022-09-09T21:15:58.562Z,22.80
2022-09-09T21:18:27.309Z,22.23
2022-09-09T21:20:54.264Z,26.20
2022-09-09T21:23:21.223Z,25.95
2022-09-09T21:25:48.075Z,24.67
2022-09-09T21:28:15.465Z,26.95
2022-09-09T21:30:44.225Z,25.63
2022-09-09T21:33:11.496Z,23.40
2022-09-09T21:35:39.520Z,24.98
2022-09-09T21:38:07.594Z,23.02
2022-09-09T21:40:37.917Z,25.27
2022-09-09T21:43:06.124Z,25.30
2022-09-09T21:45:35.803Z,26.58
2022-09-09T21:48:02.319Z,30.27
2022-09-09T21:50:29.339Z,25.95
2022-09-09T21:52:55.981Z,25.77
2022-09-09T21:55:22.651Z,26.33
2022-09-09T21:57:50.358Z,24.95
2022-09-09T22:00:18.128Z,27.83
2022-09-09T22:02:44.957Z,24.25
2022-09-09T22:05:12.883Z,25.55
2022-09-09T22:07:40.041Z,23.77
2022-09-09T22:10:07.654Z,26.75
2022-09-09T22:12:35.078Z,23.85
2022-09-09T22:15:01.853Z,24.05
2022-09-09T22:17:28.283Z,23.00
2022-09-09T22:19:54.772Z,24.15
2022-09-09T22:22:21.259Z,25.35
2022-09-09T22:24:47.596Z,24.20
2022-09-09T22:27:15.666Z,24.17
2022-09-09T22:29:42.412Z,24.17
2022-09-09T22:32:10.142Z,23.90
2022-09-09T22:34:37.772Z,24.13
2022-09-09T22:37:05.824Z,23.45
2022-09-09T22:39:32.597Z,24.38
2022-09-09T22:41:59.659Z,24.15
2022-09-09T22:44:26.899Z,24.55
2022-09-09T22:46:56.434Z,23.77
2022-09-09T22:49:23.600Z,23.13
2022-09-09T22:51:50.125Z,22.05
2022-09-09T22:54:21.631Z,22.52
2022-09-09T22:56:49.646Z,22.23
2022-09-09T22:59:16.163Z,21.83
2022-09-09T23:01:42.945Z,21.50
2022-09-09T23:04:09.670Z,21.35
2022-09-09T23:06:38.604Z,20.77
2022-09-09T23:09:05.397Z,20.83
2022-09-09T23:11:36.985Z,20.13
2022-09-09T23:14:06.543Z,20.45
2022-09-09T23:16:38.199Z,20.20
2022-09-09T23:19:09.989Z,19.35
2022-09-09T23:21:41.900Z,20.35
2022-09-09T23:24:11.515Z,20.08
2022-09-09T23:26:38.627Z,20.65
2022-09-09T23:29:05.222Z,19.55
2022-09-09T23:31:37.743Z,20.50
2022-09-09T23:34:04.798Z,20.13
2022-09-09T23:36:31.534Z,19.60
2022-09-09T23:38:59.974Z,20.92
2022-09-09T23:41:26.972Z,19.83
2022-09-09T23:43:54.055Z,21.42
2022-09-09T23:46:29.657Z,21.30
2022-09-09T23:48:58.401Z,22.13
2022-09-09T23:51:28.095Z,19.95
2022-09-09T23:53:56.837Z,21.48
2022-09-09T23:56:26.204Z,21.10
2022-09-09T23:58:53.196Z,20.07
